Orel 5 — EMFH — position and weather

sailwx.info

Track history (hours):
 
Tides and Currents Weather Stations Pressure Air Temp Water Temp Dewpoint Dewpoint Depression Visibility Wind Speed Wind Dir Waves Ship Positions

Orel 5

Last reported at 2017-Jul-01 15:30 UTC. Time now 2017-Jul-22 08:46 UTC.
Position N 44°41' E 029°30'.
Warning: this ship's position is 20 days out of date.

Length 108 m; draft 3.4 m.

Type: Cargo ship. MMSI: 272059000.

Date/timePositionNaut miles runAvg speedWind from/ knotsBaromVisibWave heightAir tempDewpointWater temp
2017-Jul-01 15:30N 44°41' E 029°30'16 6.0
2017-Jul-01 12:46N 44°53' E 029°46'2 6.4
2017-Jul-01 12:30N 44°54' E 029°47'6 6.3
2017-Jul-01 11:30N 44°59' E 029°52'4 5.9
2017-Jul-01 10:45N 45°03' E 029°55'2 5.8
2017-Jul-01 10:26N 45°05' E 029°56'3 5.8
2017-Jul-01 10:00N 45°07' E 029°57'3 5.9
2017-Jul-01 09:26N 45°11' E 029°59'6 6.0
2017-Jul-01 08:28N 45°16' E 030°02'3 6.3
2017-Jul-01 08:00N 45°19' E 030°04'3 6.3
2017-Jul-01 07:29N 45°22' E 030°05'3 6.6
2017-Jul-01 07:00N 45°25' E 030°07'4 6.6
2017-Jul-01 06:28N 45°28' E 030°09'3 6.7
2017-Jul-01 06:00N 45°31' E 030°11'4 6.7
2017-Jul-01 05:26N 45°34' E 030°12'3 6.7
2017-Jul-01 05:00N 45°37' E 030°14'3 6.6
2017-Jul-01 04:30N 45°40' E 030°17'3 6.7
2017-Jul-01 04:01N 45°42' E 030°20'3 6.7
2017-Jul-01 03:30N 45°44' E 030°23'3 6.7
2017-Jul-01 03:01N 45°47' E 030°27'3 6.7
2017-Jul-01 02:30N 45°49' E 030°30'3 6.7
2017-Jul-01 02:00N 45°51' E 030°34'3 6.8
2017-Jul-01 01:30N 45°54' E 030°37'3 6.9
2017-Jul-01 01:00N 45°56' E 030°41'4 7.0
2017-Jul-01 00:30N 45°59' E 030°44'3 6.9
2017-Jul-01 00:00N 46°01' E 030°47'4 7.1
2017-Jun-30 23:30N 46°05' E 030°49'4 7.2
2017-Jun-30 23:01N 46°08' E 030°50'4 7.2
2017-Jun-30 22:30N 46°12' E 030°52'4 7.2
2017-Jun-30 22:00N 46°15' E 030°53'4 7.4
2017-Jun-30 21:30N 46°19' E 030°55'4 7.2
2017-Jun-30 21:00N 46°22' E 030°55'4 7.2
2017-Jun-30 20:31N 46°26' E 030°55'4 7.3
2017-Jun-30 20:01N 46°29' E 030°55'3 6.6
2017-Jun-30 19:30N 46°33' E 030°57'4 7.4
2017-Jun-30 19:01N 46°34' E 031°02'25 7.2
2017-Jun-30 15:28N 46°36' E 031°39'4 7.6
2017-Jun-30 14:59N 46°36' E 031°44'4 7.3
2017-Jun-30 14:30N 46°36' E 031°49'4 7.4
2017-Jun-30 14:00N 46°34' E 031°54'4 7.3
2017-Jun-30 13:30N 46°33' E 031°59'4 7.2
2017-Jun-30 13:00N 46°32' E 032°04'141 4.3
2017-Jun-29 04:24N 47°39' E 035°07'3 7.6
2017-Jun-29 04:00N 47°42' E 035°08'3 6.7
2017-Jun-29 03:30N 47°45' E 035°10'3 6.9
2017-Jun-29 03:00N 47°49' E 035°09'4 7.0
2017-Jun-29 02:30N 47°51' E 035°05'1 1.6
2017-Jun-29 02:00N 47°52' E 035°05'0 0.7
2017-Jun-29 01:30N 47°52' E 035°06'0 0.8
2017-Jun-29 01:00N 47°52' E 035°06'0 0.0
2017-Jun-29 00:30N 47°52' E 035°06'0 0.0
2017-Jun-29 00:00N 47°52' E 035°06'0 0.0
2017-Jun-28 23:30N 47°52' E 035°06'0 0.0
2017-Jun-28 23:00N 47°52' E 035°06'0 0.0
2017-Jun-28 22:30N 47°52' E 035°06'0 0.0
2017-Jun-28 22:00N 47°52' E 035°06'0 0.0
2017-Jun-28 21:30N 47°52' E 035°06'0 0.0
2017-Jun-28 21:00N 47°52' E 035°06'0 0.0
2017-Jun-28 20:30N 47°52' E 035°06'0 0.0
2017-Jun-28 20:00N 47°52' E 035°06'0 0.0
2017-Jun-28 19:30N 47°52' E 035°06'0 0.0
2017-Jun-28 19:00N 47°52' E 035°06'0 0.1
2017-Jun-28 18:30N 47°52' E 035°06'0 0.9
2017-Jun-28 17:58N 47°53' E 035°07'0 0.0
2017-Jun-28 17:28N 47°53' E 035°07'0 0.0
2017-Jun-28 16:57N 47°53' E 035°07'0 0.0
2017-Jun-28 16:27N 47°53' E 035°07'0 0.0
2017-Jun-28 15:51N 47°53' E 035°07'0 0.0
2017-Jun-28 15:21N 47°53' E 035°07'0 0.0
2017-Jun-28 14:57N 47°53' E 035°07'0 0.0
2017-Jun-28 14:27N 47°53' E 035°07'0 0.0
2017-Jun-28 13:27N 47°53' E 035°07'0 0.0
2017-Jun-28 12:57N 47°53' E 035°07'0 0.0
2017-Jun-28 12:27N 47°53' E 035°07'0 0.0
2017-Jun-28 11:57N 47°53' E 035°07'0 0.0
2017-Jun-28 11:27N 47°53' E 035°07'0 0.0
2017-Jun-28 10:57N 47°53' E 035°07'0 0.0
2017-Jun-28 10:27N 47°53' E 035°07'0 0.0
2017-Jun-28 08:27N 47°53' E 035°07'0 0.0
2017-Jun-28 07:57N 47°53' E 035°07'0 0.0
2017-Jun-28 07:27N 47°53' E 035°07'0 0.0
2017-Jun-28 06:57N 47°53' E 035°07'0 0.0
2017-Jun-28 06:27N 47°53' E 035°07'0 0.0
2017-Jun-28 05:57N 47°53' E 035°07'0 0.0
2017-Jun-28 05:27N 47°53' E 035°07'0 0.0
2017-Jun-28 04:51N 47°53' E 035°07'0 0.0
2017-Jun-28 04:09N 47°53' E 035°07'0 0.0
2017-Jun-28 03:45N 47°53' E 035°07'0 0.0
2017-Jun-28 03:27N 47°53' E 035°07'0 0.0
2017-Jun-28 02:57N 47°53' E 035°07'0 0.0
2017-Jun-28 02:21N 47°53' E 035°07'0 0.0
2017-Jun-28 01:51N 47°53' E 035°07'0 0.0
2017-Jun-28 01:27N 47°53' E 035°07'0 0.0
2017-Jun-28 00:57N 47°53' E 035°07'0 0.0
2017-Jun-28 00:27N 47°53' E 035°07'0 0.0
2017-Jun-27 23:57N 47°53' E 035°07'0 0.0
2017-Jun-27 23:27N 47°53' E 035°07'0 0.0
2017-Jun-27 22:57N 47°53' E 035°07'0 0.0
2017-Jun-27 22:27N 47°53' E 035°07'0 0.0
2017-Jun-27 21:57N 47°53' E 035°07'0 0.0
2017-Jun-27 21:27N 47°53' E 035°07'0 0.0
2017-Jun-27 20:57N 47°53' E 035°07'0 0.0
2017-Jun-27 20:27N 47°53' E 035°07'0 0.0
2017-Jun-27 19:57N 47°53' E 035°07'0 0.0
2017-Jun-27 19:27N 47°53' E 035°07'0 0.0
2017-Jun-27 18:57N 47°53' E 035°07'0 0.0
2017-Jun-27 18:27N 47°53' E 035°07'0 0.0
2017-Jun-27 17:57N 47°53' E 035°07'0 0.0
2017-Jun-27 17:27N 47°53' E 035°07'0 0.0
2017-Jun-27 16:57N 47°53' E 035°07'0 0.0
2017-Jun-27 16:27N 47°53' E 035°07'0 0.0
2017-Jun-27 15:57N 47°53' E 035°07'0 0.0
2017-Jun-27 15:27N 47°53' E 035°07'0 0.0
2017-Jun-27 14:57N 47°53' E 035°07'0 0.0
2017-Jun-27 13:57N 47°53' E 035°07'0 0.0
2017-Jun-27 13:27N 47°53' E 035°07'0 0.0
2017-Jun-27 12:57N 47°53' E 035°07'0 0.0
2017-Jun-27 12:27N 47°53' E 035°07'0 0.0
2017-Jun-27 11:57N 47°53' E 035°07'0 0.0
2017-Jun-27 11:27N 47°53' E 035°07'0 0.0
2017-Jun-27 10:57N 47°53' E 035°07'0 0.0
2017-Jun-27 10:27N 47°53' E 035°07'0 0.0
2017-Jun-27 09:57N 47°53' E 035°07'0 0.0
2017-Jun-27 09:27N 47°53' E 035°07'0 0.0
2017-Jun-27 08:51N 47°53' E 035°07'0 0.0
2017-Jun-27 08:27N 47°53' E 035°07'0 0.0
2017-Jun-27 07:57N 47°53' E 035°07'0 0.0
2017-Jun-27 07:27N 47°53' E 035°07'0 0.0
2017-Jun-27 06:57N 47°53' E 035°07'0 0.0
2017-Jun-27 06:27N 47°53' E 035°07'0 0.0
2017-Jun-27 05:57N 47°53' E 035°07'0 0.0
2017-Jun-27 05:15N 47°53' E 035°07'0 0.0
2017-Jun-27 04:51N 47°53' E 035°07'0 0.0
2017-Jun-27 04:27N 47°53' E 035°07'0 0.0
2017-Jun-27 03:57N 47°53' E 035°07'0 0.0
2017-Jun-27 03:27N 47°53' E 035°07'0 0.0
2017-Jun-27 02:57N 47°53' E 035°07'0 0.0
2017-Jun-27 02:27N 47°53' E 035°07'0 0.0
2017-Jun-27 02:00N 47°53' E 035°07'0 0.0
2017-Jun-27 01:28N 47°53' E 035°07'0 0.0
2017-Jun-27 00:55N 47°53' E 035°07'0 0.0
2017-Jun-27 00:25N 47°53' E 035°07'0 0.0
2017-Jun-26 23:55N 47°53' E 035°07'0 0.0
2017-Jun-26 23:19N 47°53' E 035°07'0 0.0
2017-Jun-26 22:55N 47°53' E 035°07'0 0.0
2017-Jun-26 22:25N 47°53' E 035°07'0 0.0
2017-Jun-26 21:55N 47°53' E 035°07'0 0.0
2017-Jun-26 21:25N 47°53' E 035°07'0 0.0
2017-Jun-26 20:55N 47°53' E 035°07'0 0.0
2017-Jun-26 20:25N 47°53' E 035°07'0 0.0
2017-Jun-26 19:55N 47°53' E 035°07'0 0.0
2017-Jun-26 19:25N 47°53' E 035°07'0 0.0
2017-Jun-26 18:55N 47°53' E 035°07'0 0.0
2017-Jun-26 18:25N 47°53' E 035°07'0 0.0
2017-Jun-26 17:55N 47°53' E 035°07'0 0.0
2017-Jun-26 17:25N 47°53' E 035°07'0 0.0
2017-Jun-26 16:55N 47°53' E 035°07'0 0.0
2017-Jun-26 16:25N 47°53' E 035°07'0 0.0
2017-Jun-26 15:55N 47°53' E 035°07'0 0.0
2017-Jun-26 15:25N 47°53' E 035°07'0 0.0
2017-Jun-26 14:55N 47°53' E 035°07'0 0.0
2017-Jun-26 14:25N 47°53' E 035°07'0 0.0
2017-Jun-26 13:30N 47°53' E 035°07'0 0.0
2017-Jun-26 12:51N 47°53' E 035°07'0 0.0
2017-Jun-26 12:27N 47°53' E 035°07'0 0.0
2017-Jun-26 11:51N 47°53' E 035°07'0 0.0
2017-Jun-26 11:27N 47°53' E 035°07'0 0.0
2017-Jun-26 10:57N 47°53' E 035°07'0 0.0
2017-Jun-26 10:21N 47°53' E 035°07'0 0.0
2017-Jun-26 09:57N 47°53' E 035°07'0 0.0
2017-Jun-26 09:27N 47°53' E 035°07'0 0.0
2017-Jun-26 08:57N 47°53' E 035°07'0 0.0
2017-Jun-26 08:25N 47°53' E 035°07'0 0.0
2017-Jun-26 08:00N 47°53' E 035°07'1 2.2
2017-Jun-26 07:29N 47°52' E 035°05'0 0.0
2017-Jun-26 07:01N 47°52' E 035°05'1 2.1
2017-Jun-26 06:31N 47°51' E 035°05'4 7.2
2017-Jun-26 06:00N 47°48' E 035°09'0 0.1
2017-Jun-26 05:30N 47°48' E 035°09'0 0.0
2017-Jun-26 05:00N 47°48' E 035°09'1 1.1
2017-Jun-26 04:30N 47°48' E 035°10'3 6.5
2017-Jun-26 04:00N 47°45' E 035°10'4 7.1
2017-Jun-26 03:30N 47°41' E 035°08'4 7.2
2017-Jun-26 03:00N 47°38' E 035°05'126 5.5
2017-Jun-25 03:54N 46°33' E 032°26'3 7.2
2017-Jun-25 03:30N 46°33' E 032°22'4 7.2
2017-Jun-25 03:01N 46°33' E 032°17'4 7.7
2017-Jun-25 02:30N 46°33' E 032°12'4 7.6
2017-Jun-25 02:00N 46°32' E 032°06'4 7.5
2017-Jun-25 01:30N 46°33' E 032°01'4 7.6
2017-Jun-25 01:01N 46°34' E 031°56'4 7.6
2017-Jun-25 00:31N 46°35' E 031°51'4 7.4
2017-Jun-25 00:00N 46°35' E 031°45'4 7.4
2017-Jun-24 23:30N 46°35' E 031°40'  
Track history (hours):
 
Tides and Currents Weather Stations Pressure Air Temp Water Temp Dewpoint Dewpoint Depression Visibility Wind Speed Wind Dir Waves Ship Positions

Orel 5

Last reported at 2017-Jul-01 15:30 UTC. Time now 2017-Jul-22 08:46 UTC.
Position N 44°41' E 029°30'.
Warning: this ship's position is 20 days out of date.

Length 108 m; draft 3.4 m.

Type: Cargo ship. MMSI: 272059000.

Date/timePositionNaut miles runAvg speedWind from/ knotsBaromVisibWave heightAir tempDewpointWater temp
2017-Jul-01 15:30N 44°41' E 029°30'16 6.0
2017-Jul-01 12:46N 44°53' E 029°46'2 6.4
2017-Jul-01 12:30N 44°54' E 029°47'6 6.3
2017-Jul-01 11:30N 44°59' E 029°52'4 5.9
2017-Jul-01 10:45N 45°03' E 029°55'2 5.8
2017-Jul-01 10:26N 45°05' E 029°56'3 5.8
2017-Jul-01 10:00N 45°07' E 029°57'3 5.9
2017-Jul-01 09:26N 45°11' E 029°59'6 6.0
2017-Jul-01 08:28N 45°16' E 030°02'3 6.3
2017-Jul-01 08:00N 45°19' E 030°04'3 6.3
2017-Jul-01 07:29N 45°22' E 030°05'3 6.6
2017-Jul-01 07:00N 45°25' E 030°07'4 6.6
2017-Jul-01 06:28N 45°28' E 030°09'3 6.7
2017-Jul-01 06:00N 45°31' E 030°11'4 6.7
2017-Jul-01 05:26N 45°34' E 030°12'3 6.7
2017-Jul-01 05:00N 45°37' E 030°14'3 6.6
2017-Jul-01 04:30N 45°40' E 030°17'3 6.7
2017-Jul-01 04:01N 45°42' E 030°20'3 6.7
2017-Jul-01 03:30N 45°44' E 030°23'3 6.7
2017-Jul-01 03:01N 45°47' E 030°27'3 6.7
2017-Jul-01 02:30N 45°49' E 030°30'3 6.7
2017-Jul-01 02:00N 45°51' E 030°34'3 6.8
2017-Jul-01 01:30N 45°54' E 030°37'3 6.9
2017-Jul-01 01:00N 45°56' E 030°41'4 7.0
2017-Jul-01 00:30N 45°59' E 030°44'3 6.9
2017-Jul-01 00:00N 46°01' E 030°47'4 7.1
2017-Jun-30 23:30N 46°05' E 030°49'4 7.2
2017-Jun-30 23:01N 46°08' E 030°50'4 7.2
2017-Jun-30 22:30N 46°12' E 030°52'4 7.2
2017-Jun-30 22:00N 46°15' E 030°53'4 7.4
2017-Jun-30 21:30N 46°19' E 030°55'4 7.2
2017-Jun-30 21:00N 46°22' E 030°55'4 7.2
2017-Jun-30 20:31N 46°26' E 030°55'4 7.3
2017-Jun-30 20:01N 46°29' E 030°55'3 6.6
2017-Jun-30 19:30N 46°33' E 030°57'4 7.4
2017-Jun-30 19:01N 46°34' E 031°02'25 7.2
2017-Jun-30 15:28N 46°36' E 031°39'4 7.6
2017-Jun-30 14:59N 46°36' E 031°44'4 7.3
2017-Jun-30 14:30N 46°36' E 031°49'4 7.4
2017-Jun-30 14:00N 46°34' E 031°54'4 7.3
2017-Jun-30 13:30N 46°33' E 031°59'4 7.2
2017-Jun-30 13:00N 46°32' E 032°04'141 4.3
2017-Jun-29 04:24N 47°39' E 035°07'3 7.6
2017-Jun-29 04:00N 47°42' E 035°08'3 6.7
2017-Jun-29 03:30N 47°45' E 035°10'3 6.9
2017-Jun-29 03:00N 47°49' E 035°09'4 7.0
2017-Jun-29 02:30N 47°51' E 035°05'1 1.6
2017-Jun-29 02:00N 47°52' E 035°05'0 0.7
2017-Jun-29 01:30N 47°52' E 035°06'0 0.8
2017-Jun-29 01:00N 47°52' E 035°06'0 0.0
2017-Jun-29 00:30N 47°52' E 035°06'0 0.0
2017-Jun-29 00:00N 47°52' E 035°06'0 0.0
2017-Jun-28 23:30N 47°52' E 035°06'0 0.0
2017-Jun-28 23:00N 47°52' E 035°06'0 0.0
2017-Jun-28 22:30N 47°52' E 035°06'0 0.0
2017-Jun-28 22:00N 47°52' E 035°06'0 0.0
2017-Jun-28 21:30N 47°52' E 035°06'0 0.0
2017-Jun-28 21:00N 47°52' E 035°06'0 0.0
2017-Jun-28 20:30N 47°52' E 035°06'0 0.0
2017-Jun-28 20:00N 47°52' E 035°06'0 0.0
2017-Jun-28 19:30N 47°52' E 035°06'0 0.0
2017-Jun-28 19:00N 47°52' E 035°06'0 0.1
2017-Jun-28 18:30N 47°52' E 035°06'0 0.9
2017-Jun-28 17:58N 47°53' E 035°07'0 0.0
2017-Jun-28 17:28N 47°53' E 035°07'0 0.0
2017-Jun-28 16:57N 47°53' E 035°07'0 0.0
2017-Jun-28 16:27N 47°53' E 035°07'0 0.0
2017-Jun-28 15:51N 47°53' E 035°07'0 0.0
2017-Jun-28 15:21N 47°53' E 035°07'0 0.0
2017-Jun-28 14:57N 47°53' E 035°07'0 0.0
2017-Jun-28 14:27N 47°53' E 035°07'0 0.0
2017-Jun-28 13:27N 47°53' E 035°07'0 0.0
2017-Jun-28 12:57N 47°53' E 035°07'0 0.0
2017-Jun-28 12:27N 47°53' E 035°07'0 0.0
2017-Jun-28 11:57N 47°53' E 035°07'0 0.0
2017-Jun-28 11:27N 47°53' E 035°07'0 0.0
2017-Jun-28 10:57N 47°53' E 035°07'0 0.0
2017-Jun-28 10:27N 47°53' E 035°07'0 0.0
2017-Jun-28 08:27N 47°53' E 035°07'0 0.0
2017-Jun-28 07:57N 47°53' E 035°07'0 0.0
2017-Jun-28 07:27N 47°53' E 035°07'0 0.0
2017-Jun-28 06:57N 47°53' E 035°07'0 0.0
2017-Jun-28 06:27N 47°53' E 035°07'0 0.0
2017-Jun-28 05:57N 47°53' E 035°07'0 0.0
2017-Jun-28 05:27N 47°53' E 035°07'0 0.0
2017-Jun-28 04:51N 47°53' E 035°07'0 0.0
2017-Jun-28 04:09N 47°53' E 035°07'0 0.0
2017-Jun-28 03:45N 47°53' E 035°07'0 0.0
2017-Jun-28 03:27N 47°53' E 035°07'0 0.0
2017-Jun-28 02:57N 47°53' E 035°07'0 0.0
2017-Jun-28 02:21N 47°53' E 035°07'0 0.0
2017-Jun-28 01:51N 47°53' E 035°07'0 0.0
2017-Jun-28 01:27N 47°53' E 035°07'0 0.0
2017-Jun-28 00:57N 47°53' E 035°07'0 0.0
2017-Jun-28 00:27N 47°53' E 035°07'0 0.0
2017-Jun-27 23:57N 47°53' E 035°07'0 0.0
2017-Jun-27 23:27N 47°53' E 035°07'0 0.0
2017-Jun-27 22:57N 47°53' E 035°07'0 0.0
2017-Jun-27 22:27N 47°53' E 035°07'0 0.0
2017-Jun-27 21:57N 47°53' E 035°07'0 0.0
2017-Jun-27 21:27N 47°53' E 035°07'0 0.0
2017-Jun-27 20:57N 47°53' E 035°07'0 0.0
2017-Jun-27 20:27N 47°53' E 035°07'0 0.0
2017-Jun-27 19:57N 47°53' E 035°07'0 0.0
2017-Jun-27 19:27N 47°53' E 035°07'0 0.0
2017-Jun-27 18:57N 47°53' E 035°07'0 0.0
2017-Jun-27 18:27N 47°53' E 035°07'0 0.0
2017-Jun-27 17:57N 47°53' E 035°07'0 0.0
2017-Jun-27 17:27N 47°53' E 035°07'0 0.0
2017-Jun-27 16:57N 47°53' E 035°07'0 0.0
2017-Jun-27 16:27N 47°53' E 035°07'0 0.0
2017-Jun-27 15:57N 47°53' E 035°07'0 0.0
2017-Jun-27 15:27N 47°53' E 035°07'0 0.0
2017-Jun-27 14:57N 47°53' E 035°07'0 0.0
2017-Jun-27 13:57N 47°53' E 035°07'0 0.0
2017-Jun-27 13:27N 47°53' E 035°07'0 0.0
2017-Jun-27 12:57N 47°53' E 035°07'0 0.0
2017-Jun-27 12:27N 47°53' E 035°07'0 0.0
2017-Jun-27 11:57N 47°53' E 035°07'0 0.0
2017-Jun-27 11:27N 47°53' E 035°07'0 0.0
2017-Jun-27 10:57N 47°53' E 035°07'0 0.0
2017-Jun-27 10:27N 47°53' E 035°07'0 0.0
2017-Jun-27 09:57N 47°53' E 035°07'0 0.0
2017-Jun-27 09:27N 47°53' E 035°07'0 0.0
2017-Jun-27 08:51N 47°53' E 035°07'0 0.0
2017-Jun-27 08:27N 47°53' E 035°07'0 0.0
2017-Jun-27 07:57N 47°53' E 035°07'0 0.0
2017-Jun-27 07:27N 47°53' E 035°07'0 0.0
2017-Jun-27 06:57N 47°53' E 035°07'0 0.0
2017-Jun-27 06:27N 47°53' E 035°07'0 0.0
2017-Jun-27 05:57N 47°53' E 035°07'0 0.0
2017-Jun-27 05:15N 47°53' E 035°07'0 0.0
2017-Jun-27 04:51N 47°53' E 035°07'0 0.0
2017-Jun-27 04:27N 47°53' E 035°07'0 0.0
2017-Jun-27 03:57N 47°53' E 035°07'0 0.0
2017-Jun-27 03:27N 47°53' E 035°07'0 0.0
2017-Jun-27 02:57N 47°53' E 035°07'0 0.0
2017-Jun-27 02:27N 47°53' E 035°07'0 0.0
2017-Jun-27 02:00N 47°53' E 035°07'0 0.0
2017-Jun-27 01:28N 47°53' E 035°07'0 0.0
2017-Jun-27 00:55N 47°53' E 035°07'0 0.0
2017-Jun-27 00:25N 47°53' E 035°07'0 0.0
2017-Jun-26 23:55N 47°53' E 035°07'0 0.0
2017-Jun-26 23:19N 47°53' E 035°07'0 0.0
2017-Jun-26 22:55N 47°53' E 035°07'0 0.0
2017-Jun-26 22:25N 47°53' E 035°07'0 0.0
2017-Jun-26 21:55N 47°53' E 035°07'0 0.0
2017-Jun-26 21:25N 47°53' E 035°07'0 0.0
2017-Jun-26 20:55N 47°53' E 035°07'0 0.0
2017-Jun-26 20:25N 47°53' E 035°07'0 0.0
2017-Jun-26 19:55N 47°53' E 035°07'0 0.0
2017-Jun-26 19:25N 47°53' E 035°07'0 0.0
2017-Jun-26 18:55N 47°53' E 035°07'0 0.0
2017-Jun-26 18:25N 47°53' E 035°07'0 0.0
2017-Jun-26 17:55N 47°53' E 035°07'0 0.0
2017-Jun-26 17:25N 47°53' E 035°07'0 0.0
2017-Jun-26 16:55N 47°53' E 035°07'0 0.0
2017-Jun-26 16:25N 47°53' E 035°07'0 0.0
2017-Jun-26 15:55N 47°53' E 035°07'0 0.0
2017-Jun-26 15:25N 47°53' E 035°07'0 0.0
2017-Jun-26 14:55N 47°53' E 035°07'0 0.0
2017-Jun-26 14:25N 47°53' E 035°07'0 0.0
2017-Jun-26 13:30N 47°53' E 035°07'0 0.0
2017-Jun-26 12:51N 47°53' E 035°07'0 0.0
2017-Jun-26 12:27N 47°53' E 035°07'0 0.0
2017-Jun-26 11:51N 47°53' E 035°07'0 0.0
2017-Jun-26 11:27N 47°53' E 035°07'0 0.0
2017-Jun-26 10:57N 47°53' E 035°07'0 0.0
2017-Jun-26 10:21N 47°53' E 035°07'0 0.0
2017-Jun-26 09:57N 47°53' E 035°07'0 0.0
2017-Jun-26 09:27N 47°53' E 035°07'0 0.0
2017-Jun-26 08:57N 47°53' E 035°07'0 0.0
2017-Jun-26 08:25N 47°53' E 035°07'0 0.0
2017-Jun-26 08:00N 47°53' E 035°07'1 2.2
2017-Jun-26 07:29N 47°52' E 035°05'0 0.0
2017-Jun-26 07:01N 47°52' E 035°05'1 2.1
2017-Jun-26 06:31N 47°51' E 035°05'4 7.2
2017-Jun-26 06:00N 47°48' E 035°09'0 0.1
2017-Jun-26 05:30N 47°48' E 035°09'0 0.0
2017-Jun-26 05:00N 47°48' E 035°09'1 1.1
2017-Jun-26 04:30N 47°48' E 035°10'3 6.5
2017-Jun-26 04:00N 47°45' E 035°10'4 7.1
2017-Jun-26 03:30N 47°41' E 035°08'4 7.2
2017-Jun-26 03:00N 47°38' E 035°05'126 5.5
2017-Jun-25 03:54N 46°33' E 032°26'3 7.2
2017-Jun-25 03:30N 46°33' E 032°22'4 7.2
2017-Jun-25 03:01N 46°33' E 032°17'4 7.7
2017-Jun-25 02:30N 46°33' E 032°12'4 7.6
2017-Jun-25 02:00N 46°32' E 032°06'4 7.5
2017-Jun-25 01:30N 46°33' E 032°01'4 7.6
2017-Jun-25 01:01N 46°34' E 031°56'4 7.6
2017-Jun-25 00:31N 46°35' E 031°51'4 7.4
2017-Jun-25 00:00N 46°35' E 031°45'4 7.4
2017-Jun-24 23:30N 46°35' E 031°40'  

Dump ship's entire track history